Bouzas — EAPC — position and weather

sailwx.info

Track history (hours):
 
Tides and Currents Weather Stations Pressure Air Temp Water Temp Dewpoint Dewpoint Depression Visibility Wind Speed Wind Dir Waves Ship Positions

Bouzas

Last reported at 2014-Jul-25 07:30 UTC. Time now 2014-Jul-25 08:56 UTC.
Position N 41°22' E 002°11'.

Length 142 m; draft 5.5 m.

Type: Cargo ship. MMSI: 224029000.

Date/timePositionNaut miles runAvg speedWind from/ knotsBaromVisibWave heightAir tempDewpointWater temp
2014-Jul-25 07:30N 41°22' E 002°11'0 0.0
2014-Jul-25 03:33N 41°22' E 002°11'8 8.0
2014-Jul-25 02:33N 41°15' E 002°15'1110.6
2014-Jul-25 01:33N 41°06' E 002°08'1010.5
2014-Jul-25 00:33N 40°56' E 002°01'1110.6
2014-Jul-24 23:33N 40°47' E 001°55'1010.4
2014-Jul-24 22:33N 40°38' E 001°48'1010.2
2014-Jul-24 21:33N 40°29' E 001°42'1110.6
2014-Jul-24 20:33N 40°19' E 001°37'1010.4
2014-Jul-24 19:33N 40°11' E 001°29'1010.3
2014-Jul-24 18:33N 40°02' E 001°22'1010.5
2014-Jul-24 17:33N 39°53' E 001°15'1010.4
2014-Jul-24 16:33N 39°44' E 001°08'5412.2
2014-Jul-24 12:08N 38°55' E 000°38'2513.3
2014-Jul-24 10:16N 38°34' E 000°21'1013.3
2014-Jul-24 09:33N 38°27' E 000°14'1313.0
2014-Jul-24 08:33N 38°15' E 000°06'1712.3
2014-Jul-24 07:11N 38°01' W 000°04'812.9
2014-Jul-24 06:32N 37°54' W 000°11'1817.9
2014-Jul-24 05:34N 37°40' W 000°25'1818.0
2014-Jul-24 04:33N 37°27' W 000°40'1918.3
2014-Jul-24 03:32N 37°15' W 000°58'22118.1
2014-Jul-23 15:20N 35°59' W 005°16'7419.2
2014-Jul-23 11:29N 35°32' W 006°41'16518.5
2014-Jul-23 02:32N 33°42' W 009°11'1717.8
2014-Jul-23 01:33N 33°31' W 009°27'2317.8
2014-Jul-23 00:16N 33°16' W 009°48'13717.7
2014-Jul-22 16:32N 31°45' W 011°50'1818.2
2014-Jul-22 15:33N 31°33' W 012°05'  
2014-Jul-19 10:16N 36°32' W 002°43'1818.4
2014-Jul-19 09:18N 36°27' W 002°21'1216.8
2014-Jul-19 08:34N 36°29' W 002°06'2618.8
2014-Jul-19 07:12N 36°46' W 001°43'1418.8
2014-Jul-19 06:26N 36°56' W 001°29'1719.2
2014-Jul-19 05:33N 37°06' W 001°13'4622.8
2014-Jul-19 03:33N 37°37' W 000°31'1312.3
2014-Jul-19 02:32N 37°48' W 000°21'2219.2
2014-Jul-19 01:23N 38°06' W 000°06'10219.3
2014-Jul-18 20:05N 39°34' E 000°59'1019.1
2014-Jul-18 19:33N 39°43' E 001°06'1919.2
2014-Jul-18 18:33N 40°00' E 001°18'1919.3
2014-Jul-18 17:33N 40°17' E 001°30'1919.4
2014-Jul-18 16:33N 40°34' E 001°42'2019.6
2014-Jul-18 15:33N 40°51' E 001°55'1919.4
2014-Jul-18 14:33N 41°08' E 002°07'1414.2
2014-Jul-18 13:33N 41°22' E 002°11'0 0.1
2014-Jul-18 12:11N 41°22' E 002°11'0 0.0
2014-Jul-18 11:23N 41°22' E 002°11'0 0.0
2014-Jul-18 08:32N 41°22' E 002°11'0 0.0
2014-Jul-18 07:17N 41°22' E 002°11'0 0.0
2014-Jul-18 06:11N 41°22' E 002°11'0 0.0
2014-Jul-18 05:31N 41°22' E 002°11'0 0.0
2014-Jul-18 04:22N 41°22' E 002°11'3 3.7
2014-Jul-18 03:33N 41°20' E 002°14'1211.9
2014-Jul-18 02:33N 41°08' E 002°09'9 9.4
2014-Jul-18 01:33N 41°00' E 002°03'1010.4
2014-Jul-18 00:33N 40°51' E 001°57'1010.4
2014-Jul-17 23:33N 40°42' E 001°51'1110.5
2014-Jul-17 22:34N 40°32' E 001°44'1110.6
2014-Jul-17 21:33N 40°23' E 001°38'1414.0
2014-Jul-17 20:33N 40°11' E 001°28'1414.2
2014-Jul-17 19:33N 39°59' E 001°19'1414.3
2014-Jul-17 18:33N 39°46' E 001°11'8513.3
2014-Jul-17 12:07N 38°30' E 000°19'814.4
2014-Jul-17 11:33N 38°23' E 000°14'1818.2
2014-Jul-17 10:33N 38°09' W 000°00'3013.7
2014-Jul-17 08:20N 37°44' W 000°22'1113.2
2014-Jul-17 07:28N 37°34' W 000°30'49217.0
2014-Jul-16 02:34N 33°36' W 009°20'9317.6
2014-Jul-15 21:15N 32°35' W 010°43'  
Track history (hours):
 
Tides and Currents Weather Stations Pressure Air Temp Water Temp Dewpoint Dewpoint Depression Visibility Wind Speed Wind Dir Waves Ship Positions

Bouzas

Last reported at 2014-Jul-25 07:30 UTC. Time now 2014-Jul-25 08:56 UTC.
Position N 41°22' E 002°11'.

Length 142 m; draft 5.5 m.

Type: Cargo ship. MMSI: 224029000.

Date/timePositionNaut miles runAvg speedWind from/ knotsBaromVisibWave heightAir tempDewpointWater temp
2014-Jul-25 07:30N 41°22' E 002°11'0 0.0
2014-Jul-25 03:33N 41°22' E 002°11'8 8.0
2014-Jul-25 02:33N 41°15' E 002°15'1110.6
2014-Jul-25 01:33N 41°06' E 002°08'1010.5
2014-Jul-25 00:33N 40°56' E 002°01'1110.6
2014-Jul-24 23:33N 40°47' E 001°55'1010.4
2014-Jul-24 22:33N 40°38' E 001°48'1010.2
2014-Jul-24 21:33N 40°29' E 001°42'1110.6
2014-Jul-24 20:33N 40°19' E 001°37'1010.4
2014-Jul-24 19:33N 40°11' E 001°29'1010.3
2014-Jul-24 18:33N 40°02' E 001°22'1010.5
2014-Jul-24 17:33N 39°53' E 001°15'1010.4
2014-Jul-24 16:33N 39°44' E 001°08'5412.2
2014-Jul-24 12:08N 38°55' E 000°38'2513.3
2014-Jul-24 10:16N 38°34' E 000°21'1013.3
2014-Jul-24 09:33N 38°27' E 000°14'1313.0
2014-Jul-24 08:33N 38°15' E 000°06'1712.3
2014-Jul-24 07:11N 38°01' W 000°04'812.9
2014-Jul-24 06:32N 37°54' W 000°11'1817.9
2014-Jul-24 05:34N 37°40' W 000°25'1818.0
2014-Jul-24 04:33N 37°27' W 000°40'1918.3
2014-Jul-24 03:32N 37°15' W 000°58'22118.1
2014-Jul-23 15:20N 35°59' W 005°16'7419.2
2014-Jul-23 11:29N 35°32' W 006°41'16518.5
2014-Jul-23 02:32N 33°42' W 009°11'1717.8
2014-Jul-23 01:33N 33°31' W 009°27'2317.8
2014-Jul-23 00:16N 33°16' W 009°48'13717.7
2014-Jul-22 16:32N 31°45' W 011°50'1818.2
2014-Jul-22 15:33N 31°33' W 012°05'  
2014-Jul-19 10:16N 36°32' W 002°43'1818.4
2014-Jul-19 09:18N 36°27' W 002°21'1216.8
2014-Jul-19 08:34N 36°29' W 002°06'2618.8
2014-Jul-19 07:12N 36°46' W 001°43'1418.8
2014-Jul-19 06:26N 36°56' W 001°29'1719.2
2014-Jul-19 05:33N 37°06' W 001°13'4622.8
2014-Jul-19 03:33N 37°37' W 000°31'1312.3
2014-Jul-19 02:32N 37°48' W 000°21'2219.2
2014-Jul-19 01:23N 38°06' W 000°06'10219.3
2014-Jul-18 20:05N 39°34' E 000°59'1019.1
2014-Jul-18 19:33N 39°43' E 001°06'1919.2
2014-Jul-18 18:33N 40°00' E 001°18'1919.3
2014-Jul-18 17:33N 40°17' E 001°30'1919.4
2014-Jul-18 16:33N 40°34' E 001°42'2019.6
2014-Jul-18 15:33N 40°51' E 001°55'1919.4
2014-Jul-18 14:33N 41°08' E 002°07'1414.2
2014-Jul-18 13:33N 41°22' E 002°11'0 0.1
2014-Jul-18 12:11N 41°22' E 002°11'0 0.0
2014-Jul-18 11:23N 41°22' E 002°11'0 0.0
2014-Jul-18 08:32N 41°22' E 002°11'0 0.0
2014-Jul-18 07:17N 41°22' E 002°11'0 0.0
2014-Jul-18 06:11N 41°22' E 002°11'0 0.0
2014-Jul-18 05:31N 41°22' E 002°11'0 0.0
2014-Jul-18 04:22N 41°22' E 002°11'3 3.7
2014-Jul-18 03:33N 41°20' E 002°14'1211.9
2014-Jul-18 02:33N 41°08' E 002°09'9 9.4
2014-Jul-18 01:33N 41°00' E 002°03'1010.4
2014-Jul-18 00:33N 40°51' E 001°57'1010.4
2014-Jul-17 23:33N 40°42' E 001°51'1110.5
2014-Jul-17 22:34N 40°32' E 001°44'1110.6
2014-Jul-17 21:33N 40°23' E 001°38'1414.0
2014-Jul-17 20:33N 40°11' E 001°28'1414.2
2014-Jul-17 19:33N 39°59' E 001°19'1414.3
2014-Jul-17 18:33N 39°46' E 001°11'8513.3
2014-Jul-17 12:07N 38°30' E 000°19'814.4
2014-Jul-17 11:33N 38°23' E 000°14'1818.2
2014-Jul-17 10:33N 38°09' W 000°00'3013.7
2014-Jul-17 08:20N 37°44' W 000°22'1113.2
2014-Jul-17 07:28N 37°34' W 000°30'49217.0
2014-Jul-16 02:34N 33°36' W 009°20'9317.6
2014-Jul-15 21:15N 32°35' W 010°43'  

Dump ship's entire track history